Time;durP1;ratioP1;P1;durP2;ratioP2;P2;SDS_P1;SDS_P2;PMS_P1;PMS_P2;Temp;Humidity;BMP_temperature;BMP_pressure;BME280_temperature;BME280_humidity;BME280_pressure;Samples;Min_cycle;Max_cycle;Signal;HPM_P1;HPM_P2
2022/06/29 00:01:24;;;;;;;16.70;4.45;;;24.20;96.70;;;;;;4941665;29;20086;-81
2022/06/29 00:03:54;;;;;;;12.93;4.10;;;24.20;96.70;;;;;;4946266;29;20507;-81
2022/06/29 00:06:22;;;;;;;15.23;4.93;;;24.20;96.70;;;;;;4946347;29;20083;-81
2022/06/29 00:08:50;;;;;;;16.17;4.68;;;24.10;96.70;;;;;;4946839;29;20413;-81
2022/06/29 00:11:18;;;;;;;17.65;5.32;;;24.10;96.70;;;;;;4943645;28;20078;-81
2022/06/29 00:13:46;;;;;;;19.85;4.90;;;24.10;96.70;;;;;;4940488;29;20052;-81
2022/06/29 00:16:14;;;;;;;15.15;4.78;;;24.00;96.70;;;;;;4927066;29;20055;-81
2022/06/29 00:18:42;;;;;;;16.45;5.22;;;24.00;96.70;;;;;;4926871;29;20069;-80
2022/06/29 00:21:12;;;;;;;13.38;4.03;;;23.90;96.70;;;;;;4928875;29;20051;-81
2022/06/29 00:23:41;;;;;;;13.52;4.35;;;24.00;96.70;;;;;;4946356;29;20054;-81
2022/06/29 00:26:09;;;;;;;17.08;4.68;;;24.00;96.70;;;;;;4940676;29;20564;-81
2022/06/29 00:28:37;;;;;;;20.90;5.57;;;23.90;96.70;;;;;;4943593;28;20086;-81
2022/06/29 00:31:05;;;;;;;17.45;4.57;;;23.90;96.70;;;;;;4922293;29;20103;-81
2022/06/29 00:33:33;;;;;;;14.43;4.78;;;23.80;96.70;;;;;;4942054;28;20130;-80
2022/06/29 00:36:04;;;;;;;16.20;5.28;;;23.70;96.70;;;;;;4936177;29;20685;-83
2022/06/29 00:38:41;;;;;;;16.98;5.00;;;23.60;96.70;;;;;;4945378;29;20063;-81
2022/06/29 00:41:09;;;;;;;15.07;4.15;;;23.60;96.70;;;;;;4939462;28;20569;-79
2022/06/29 00:43:40;;;;;;;15.73;4.25;;;23.60;96.70;;;;;;4937615;29;20047;-81
2022/06/29 00:46:08;;;;;;;17.83;4.53;;;23.60;96.70;;;;;;4942261;29;20052;-79
2022/06/29 00:48:36;;;;;;;13.25;4.47;;;23.60;96.70;;;;;;4942227;28;20075;-80
2022/06/29 00:51:06;;;;;;;18.02;4.95;;;23.60;96.70;;;;;;4933478;29;20522;-80
2022/06/29 00:53:49;;;;;;;11.95;4.68;;;23.60;96.70;;;;;;4940199;28;20090;-80
2022/06/29 00:56:28;;;;;;;20.27;5.18;;;23.50;96.70;;;;;;4937477;29;20518;-80
2022/06/29 00:58:58;;;;;;;17.63;4.63;;;23.40;96.70;;;;;;4938686;29;20036;-81
2022/06/29 01:01:26;;;;;;;13.68;4.47;;;23.40;96.70;;;;;;4939030;29;20520;-81
2022/06/29 01:03:55;;;;;;;18.00;4.75;;;23.40;96.70;;;;;;4944399;29;20142;-81
2022/06/29 01:06:23;;;;;;;16.95;5.05;;;23.30;96.70;;;;;;4938896;29;20048;-82
2022/06/29 01:08:52;;;;;;;15.30;4.35;;;23.20;96.70;;;;;;4939001;28;20047;-81
2022/06/29 01:11:20;;;;;;;18.88;4.45;;;23.20;96.70;;;;;;4935690;29;20577;-81
2022/06/29 01:13:49;;;;;;;17.75;4.30;;;23.10;96.70;;;;;;4926274;29;20055;-81
2022/06/29 01:16:17;;;;;;;17.77;4.05;;;23.10;96.70;;;;;;4959174;28;20051;-82
2022/06/29 01:18:45;;;;;;;14.45;3.83;;;23.10;96.70;;;;;;4948204;29;20055;-80
2022/06/29 01:21:14;;;;;;;18.50;4.53;;;23.10;96.70;;;;;;4939685;28;20401;-81
2022/06/29 01:23:43;;;;;;;14.50;3.60;;;23.10;96.70;;;;;;4929805;29;20055;-81
2022/06/29 01:26:12;;;;;;;11.85;3.63;;;23.10;96.70;;;;;;4947293;29;20051;-83
2022/06/29 01:28:46;;;;;;;16.42;3.55;;;23.10;96.70;;;;;;4948670;29;20069;-84
2022/06/29 01:31:14;;;;;;;15.85;3.63;;;23.10;96.70;;;;;;4950361;29;20048;-84
2022/06/29 01:33:42;;;;;;;16.77;4.00;;;23.00;96.70;;;;;;4950190;29;20062;-85
2022/06/29 01:36:11;;;;;;;16.65;4.15;;;23.00;96.70;;;;;;4942236;29;20272;-84
2022/06/29 01:38:40;;;;;;;14.60;3.50;;;23.00;96.70;;;;;;4950956;28;20047;-84
2022/06/29 01:41:11;;;;;;;16.00;3.40;;;23.00;96.70;;;;;;4958030;28;20054;-84
2022/06/29 01:43:39;;;;;;;10.55;2.95;;;23.10;96.70;;;;;;4957415;29;20050;-85
2022/06/29 01:46:07;;;;;;;12.52;3.28;;;23.10;96.70;;;;;;4935850;29;20066;-84
2022/06/29 01:48:36;;;;;;;13.20;3.60;;;23.10;96.70;;;;;;4953662;29;20043;-84
2022/06/29 01:51:04;;;;;;;12.20;3.08;;;23.10;96.70;;;;;;4942855;29;20066;-85
2022/06/29 01:53:32;;;;;;;13.90;3.47;;;23.10;96.70;;;;;;4951154;29;20047;-84
2022/06/29 01:56:00;;;;;;;14.65;3.10;;;23.10;96.70;;;;;;4948879;29;20048;-84
2022/06/29 01:58:29;;;;;;;14.90;3.20;;;23.20;96.70;;;;;;4943303;29;20063;-84
2022/06/29 02:00:57;;;;;;;14.93;4.32;;;23.10;96.70;;;;;;4947779;29;20525;-84
2022/06/29 02:03:26;;;;;;;13.23;3.75;;;23.20;96.70;;;;;;4944389;29;20054;-84
2022/06/29 02:05:53;;;;;;;16.02;3.97;;;23.10;96.70;;;;;;4931253;29;20076;-84
2022/06/29 02:08:21;;;;;;;13.48;2.90;;;23.10;96.70;;;;;;4945205;29;20039;-84
2022/06/29 02:10:49;;;;;;;12.13;2.70;;;23.20;96.70;;;;;;4945723;29;20043;-81
2022/06/29 02:13:17;;;;;;;9.02;2.45;;;23.10;96.70;;;;;;4939300;29;20815;-82
2022/06/29 02:15:47;;;;;;;12.45;2.45;;;23.10;96.70;;;;;;4943113;29;20051;-83
2022/06/29 02:18:15;;;;;;;8.73;2.63;;;23.00;96.70;;;;;;4948842;29;20059;-82
2022/06/29 02:20:43;;;;;;;7.95;2.40;;;23.00;96.70;;;;;;4945441;29;20054;-81
2022/06/29 02:23:11;;;;;;;7.80;2.05;;;23.00;96.70;;;;;;4949029;28;20047;-82
2022/06/29 02:25:39;;;;;;;8.63;2.13;;;23.00;96.70;;;;;;4948422;28;20059;-82
2022/06/29 02:28:07;;;;;;;9.70;2.58;;;23.00;96.70;;;;;;4939578;28;20066;-82
2022/06/29 02:36:11;;;;;;;12.18;2.30;;;23.00;96.70;;;;;;4947879;29;20074;-82
2022/06/29 02:38:39;;;;;;;9.75;2.28;;;23.00;96.70;;;;;;4947195;29;20043;-81
2022/06/29 02:41:07;;;;;;;9.02;2.03;;;23.00;96.70;;;;;;4922554;29;20078;-81
2022/06/29 02:43:35;;;;;;;11.45;2.22;;;23.00;96.70;;;;;;4945276;29;20410;-80
2022/06/29 02:46:03;;;;;;;7.43;2.63;;;23.00;96.70;;;;;;4950619;29;20051;-81
2022/06/29 02:48:38;;;;;;;11.13;2.30;;;23.00;96.70;;;;;;4922246;29;20047;-81
2022/06/29 02:51:05;;;;;;;9.98;2.17;;;23.00;96.70;;;;;;4938073;29;20047;-81
2022/06/29 02:53:38;;;;;;;11.95;2.45;;;23.00;96.70;;;;;;4941813;29;20510;-82
2022/06/29 02:56:06;;;;;;;6.90;1.65;;;22.90;96.70;;;;;;4940287;29;20056;-80
2022/06/29 02:58:35;;;;;;;10.45;2.65;;;22.90;96.70;;;;;;4946148;29;20053;-83
2022/06/29 03:01:04;;;;;;;7.05;2.22;;;22.80;96.70;;;;;;4945881;28;20131;-82
2022/06/29 03:03:32;;;;;;;8.95;2.38;;;22.70;96.70;;;;;;4939361;29;20044;-83
2022/06/29 03:06:01;;;;;;;7.22;1.85;;;22.60;96.70;;;;;;4924585;29;20052;-82
2022/06/29 03:08:29;;;;;;;9.88;1.98;;;22.60;96.70;;;;;;4948015;29;20150;-83
2022/06/29 03:10:57;;;;;;;12.15;3.10;;;22.60;96.70;;;;;;4948382;29;20073;-82
2022/06/29 03:13:25;;;;;;;8.40;2.47;;;22.70;96.70;;;;;;4949383;29;20044;-83
2022/06/29 03:15:53;;;;;;;10.10;2.42;;;22.60;96.70;;;;;;4948544;29;20049;-82
2022/06/29 03:18:21;;;;;;;8.23;2.20;;;22.60;96.70;;;;;;4925203;29;20513;-82
2022/06/29 03:20:50;;;;;;;12.30;2.95;;;22.60;96.70;;;;;;4937889;29;20051;-81
2022/06/29 03:23:20;;;;;;;9.32;2.42;;;22.60;96.70;;;;;;4940522;29;20549;-81
2022/06/29 03:25:48;;;;;;;9.50;2.33;;;22.70;96.70;;;;;;4948141;29;20063;-82
2022/06/29 03:28:17;;;;;;;12.32;2.40;;;22.70;96.70;;;;;;4952180;29;20066;-82
2022/06/29 03:30:45;;;;;;;9.10;1.80;;;22.70;96.70;;;;;;4950238;28;20050;-82
2022/06/29 03:33:14;;;;;;;7.32;1.90;;;22.80;96.70;;;;;;4944762;29;20111;-81
2022/06/29 03:35:42;;;;;;;8.13;2.20;;;22.80;96.70;;;;;;4963225;28;20066;-81
2022/06/29 03:38:11;;;;;;;7.28;2.05;;;22.80;96.70;;;;;;4917787;29;20043;-81
2022/06/29 03:40:41;;;;;;;8.98;1.95;;;22.80;96.70;;;;;;4948661;29;20039;-82
2022/06/29 03:43:10;;;;;;;9.35;2.40;;;22.80;96.70;;;;;;4940240;28;20063;-81
2022/06/29 03:45:43;;;;;;;10.13;2.58;;;22.70;96.70;;;;;;4943922;29;20054;-82
2022/06/29 03:48:12;;;;;;;8.23;2.63;;;22.70;96.70;;;;;;4947950;29;20040;-80
2022/06/29 03:50:40;;;;;;;7.28;1.73;;;22.70;96.70;;;;;;4942826;29;20066;-82
2022/06/29 03:53:09;;;;;;;7.63;2.35;;;22.70;96.70;;;;;;4948120;28;20058;-82
2022/06/29 03:55:37;;;;;;;12.32;3.50;;;22.80;96.70;;;;;;4948736;28;20070;-81
2022/06/29 03:58:07;;;;;;;9.05;1.88;;;22.70;96.70;;;;;;4947706;28;20055;-82
2022/06/29 04:00:36;;;;;;;9.38;2.38;;;22.70;96.70;;;;;;4956957;28;20039;-82
2022/06/29 04:03:04;;;;;;;10.45;2.17;;;22.70;96.70;;;;;;4944473;28;20099;-82
2022/06/29 04:05:33;;;;;;;9.15;2.30;;;22.70;96.70;;;;;;4945299;29;20055;-84
2022/06/29 04:08:07;;;;;;;6.45;1.67;;;22.70;96.70;;;;;;4931835;29;20051;-85
2022/06/29 04:10:35;;;;;;;10.27;2.22;;;22.60;96.70;;;;;;4950386;29;20051;-84
2022/06/29 04:13:04;;;;;;;8.20;2.50;;;22.60;96.70;;;;;;4948422;29;20051;-83
2022/06/29 04:15:38;;;;;;;7.28;2.03;;;22.70;96.70;;;;;;4955212;29;20039;-83
2022/06/29 04:18:37;;;;;;;6.85;2.60;;;22.60;96.70;;;;;;4883926;29;20048;-83
2022/06/29 04:21:16;;;;;;;9.70;2.10;;;22.60;96.70;;;;;;4874451;29;20042;-86
2022/06/29 04:23:44;;;;;;;8.23;2.13;;;22.60;96.70;;;;;;4871505;29;20056;-80
2022/06/29 04:26:13;;;;;;;7.07;2.30;;;22.60;96.70;;;;;;4872523;29;20497;-83
2022/06/29 04:28:41;;;;;;;6.63;2.33;;;22.70;96.70;;;;;;4872856;29;20096;-83
2022/06/29 04:31:11;;;;;;;9.18;1.88;;;22.60;96.70;;;;;;4874035;29;20052;-83
2022/06/29 04:33:40;;;;;;;9.55;2.83;;;22.70;96.70;;;;;;4873291;29;20069;-84
2022/06/29 04:36:09;;;;;;;10.20;2.58;;;22.70;96.70;;;;;;4873964;29;20053;-83
2022/06/29 04:38:37;;;;;;;5.65;1.77;;;22.70;96.70;;;;;;4871117;29;20053;-82
2022/06/29 04:41:05;;;;;;;7.60;2.15;;;22.70;96.70;;;;;;4856780;29;20080;-82
2022/06/29 04:43:34;;;;;;;5.93;1.80;;;22.70;96.70;;;;;;4871065;29;20526;-83
2022/06/29 04:46:21;;;;;;;8.85;2.00;;;22.70;96.70;;;;;;4874034;29;20512;-84
2022/06/29 04:48:54;;;;;;;10.27;2.28;;;22.70;96.70;;;;;;4877629;29;20049;-83
2022/06/29 04:51:23;;;;;;;11.00;3.30;;;22.70;96.70;;;;;;4891085;29;20049;-83
2022/06/29 04:53:56;;;;;;;8.63;2.03;;;22.70;96.70;;;;;;4875986;29;20069;-84
2022/06/29 04:56:26;;;;;;;7.20;2.40;;;22.80;96.70;;;;;;4864611;29;20101;-84
2022/06/29 04:58:56;;;;;;;8.23;2.42;;;22.80;96.70;;;;;;4889100;29;20057;-83
2022/06/29 05:01:26;;;;;;;8.50;1.92;;;22.90;96.70;;;;;;4876093;29;20052;-84
2022/06/29 05:03:59;;;;;;;7.03;1.95;;;23.00;96.70;;;;;;4861222;29;20496;-84
2022/06/29 05:06:28;;;;;;;8.98;2.42;;;23.00;96.70;;;;;;4875553;29;20211;-84
2022/06/29 05:08:56;;;;;;;13.02;2.13;;;23.10;96.70;;;;;;4875736;29;20463;-84
2022/06/29 05:11:26;;;;;;;9.85;2.97;;;23.20;96.70;;;;;;4874365;29;20057;-83
2022/06/29 05:13:55;;;;;;;8.70;2.22;;;23.20;96.70;;;;;;4876774;29;20056;-83
2022/06/29 05:16:23;;;;;;;13.35;3.10;;;23.30;96.70;;;;;;4860142;29;20049;-83
2022/06/29 05:18:52;;;;;;;9.70;2.42;;;23.30;96.70;;;;;;4875405;29;20095;-83
2022/06/29 05:21:22;;;;;;;8.55;2.10;;;23.40;96.70;;;;;;4877543;29;20053;-84
2022/06/29 05:23:50;;;;;;;9.02;2.33;;;23.40;96.70;;;;;;4878582;29;20103;-83
2022/06/29 05:26:19;;;;;;;11.23;2.47;;;23.50;96.70;;;;;;4874632;29;20097;-83
2022/06/29 05:28:48;;;;;;;10.40;2.45;;;23.50;96.70;;;;;;4885532;29;20076;-82
2022/06/29 05:31:19;;;;;;;10.18;2.42;;;23.50;96.70;;;;;;4860658;29;20147;-84
2022/06/29 05:33:48;;;;;;;9.07;2.22;;;23.60;96.70;;;;;;4871436;29;20057;-82
2022/06/29 05:36:16;;;;;;;9.02;2.20;;;23.70;96.70;;;;;;4856040;29;20551;-82
2022/06/29 05:38:46;;;;;;;8.82;2.40;;;23.80;96.70;;;;;;4874094;29;20049;-81
2022/06/29 05:41:15;;;;;;;11.07;2.72;;;23.70;96.70;;;;;;4868316;29;20049;-80
2022/06/29 05:43:49;;;;;;;7.55;2.08;;;23.60;96.70;;;;;;4870184;29;20498;-79
2022/06/29 05:46:19;;;;;;;11.40;2.55;;;23.60;96.70;;;;;;4873622;29;20049;-79
2022/06/29 05:48:47;;;;;;;8.40;2.30;;;23.60;96.70;;;;;;4891697;29;20154;-85
2022/06/29 05:51:16;;;;;;;12.85;3.25;;;23.60;96.70;;;;;;4875911;29;20049;-84
2022/06/29 05:53:46;;;;;;;9.82;2.33;;;23.60;96.70;;;;;;4877668;29;20044;-86
2022/06/29 05:56:15;;;;;;;6.65;2.13;;;23.60;96.70;;;;;;4876410;29;20052;-84
2022/06/29 05:58:43;;;;;;;12.55;2.40;;;23.50;96.70;;;;;;4875810;29;20509;-86
2022/06/29 06:01:12;;;;;;;10.43;2.40;;;23.60;96.70;;;;;;4875524;29;20140;-84
2022/06/29 06:03:40;;;;;;;9.38;2.30;;;23.60;96.70;;;;;;4883410;29;20041;-87
2022/06/29 06:06:09;;;;;;;9.60;2.30;;;23.60;96.70;;;;;;4875876;29;20056;-85
2022/06/29 06:08:37;;;;;;;6.05;2.10;;;23.60;96.70;;;;;;4876841;29;20564;-86
2022/06/29 06:11:07;;;;;;;11.15;2.53;;;23.60;96.70;;;;;;4876453;29;20206;-87
2022/06/29 06:13:36;;;;;;;13.68;3.35;;;23.60;96.70;;;;;;4891493;29;20044;-86
2022/06/29 06:16:19;;;;;;;8.68;2.83;;;23.60;96.70;;;;;;4873782;29;20049;-88
2022/06/29 06:19:08;;;;;;;6.53;2.10;;;23.60;96.70;;;;;;4837102;29;20098;-81
2022/06/29 06:21:36;;;;;;;7.35;2.33;;;23.60;96.70;;;;;;4835659;29;20050;-81
2022/06/29 06:24:05;;;;;;;11.82;2.78;;;23.60;96.70;;;;;;4837385;29;20201;-81
2022/06/29 06:26:35;;;;;;;8.45;2.70;;;23.70;96.70;;;;;;4840118;29;20104;-81
2022/06/29 06:29:03;;;;;;;10.50;3.15;;;23.80;96.70;;;;;;4834416;29;20054;-81
2022/06/29 06:31:32;;;;;;;9.98;2.70;;;23.90;96.70;;;;;;4833052;29;20046;-79
2022/06/29 06:34:00;;;;;;;7.95;2.60;;;23.90;96.70;;;;;;4819056;29;20054;-77
2022/06/29 06:36:29;;;;;;;8.65;3.05;;;24.00;96.70;;;;;;4839197;29;20649;-78
2022/06/29 06:38:57;;;;;;;9.88;2.80;;;24.00;96.70;;;;;;4835578;29;20398;-79
2022/06/29 06:41:25;;;;;;;10.80;3.72;;;24.10;96.70;;;;;;4842371;29;20046;-78
2022/06/29 06:43:57;;;;;;;10.80;3.05;;;24.20;96.70;;;;;;4845527;29;20060;-82
2022/06/29 06:46:28;;;;;;;11.63;3.08;;;24.30;96.70;;;;;;4839417;29;20046;-81
2022/06/29 06:48:56;;;;;;;11.05;2.70;;;24.30;96.70;;;;;;4831682;29;20094;-80
2022/06/29 06:51:25;;;;;;;10.70;2.67;;;24.30;96.70;;;;;;4846975;29;20058;-81
2022/06/29 06:53:53;;;;;;;10.20;2.72;;;24.40;96.70;;;;;;4836200;29;20054;-81
2022/06/29 06:56:21;;;;;;;8.43;2.95;;;24.50;96.70;;;;;;4835341;29;20038;-80
2022/06/29 06:58:50;;;;;;;11.57;2.85;;;24.50;96.70;;;;;;4847350;29;20046;-80
2022/06/29 07:01:24;;;;;;;7.63;2.78;;;24.50;96.70;;;;;;4834366;29;20127;-80
2022/06/29 07:03:52;;;;;;;10.40;3.53;;;24.60;96.70;;;;;;4835967;29;20064;-78
2022/06/29 07:06:21;;;;;;;10.82;2.50;;;24.60;96.70;;;;;;4843085;29;20521;-78
2022/06/29 07:08:49;;;;;;;10.07;2.42;;;24.70;96.70;;;;;;4835919;29;20133;-78
2022/06/29 07:11:18;;;;;;;13.88;2.80;;;24.80;96.70;;;;;;4832013;29;20487;-77
2022/06/29 07:13:47;;;;;;;8.40;2.33;;;24.80;96.70;;;;;;4834314;29;20053;-77
2022/06/29 07:16:15;;;;;;;7.65;2.45;;;24.80;96.70;;;;;;4847960;29;20056;-78
2022/06/29 07:18:46;;;;;;;11.07;2.38;;;24.90;96.70;;;;;;4870850;29;20512;-78
2022/06/29 07:21:14;;;;;;;10.80;2.15;;;25.00;96.70;;;;;;4872687;29;20068;-80
2022/06/29 07:23:43;;;;;;;8.57;2.47;;;25.00;96.70;;;;;;4870073;29;20075;-79
2022/06/29 07:26:11;;;;;;;9.82;2.75;;;25.00;96.70;;;;;;4870181;29;20826;-80
2022/06/29 07:28:40;;;;;;;11.98;2.20;;;25.10;96.70;;;;;;4869137;29;20049;-80
2022/06/29 07:31:08;;;;;;;9.48;2.17;;;25.20;96.70;;;;;;4870647;29;20057;-78
2022/06/29 07:33:37;;;;;;;10.98;2.53;;;25.20;96.70;;;;;;4869437;29;20509;-79
2022/06/29 07:36:08;;;;;;;7.18;2.03;;;25.20;96.70;;;;;;4870013;29;20080;-80
2022/06/29 07:38:36;;;;;;;6.60;1.90;;;25.30;96.70;;;;;;4871534;29;20045;-79
2022/06/29 07:41:05;;;;;;;8.15;1.90;;;25.40;96.70;;;;;;4872050;29;20052;-79
2022/06/29 07:43:34;;;;;;;5.88;1.70;;;25.50;96.70;;;;;;4869657;29;20049;-80
2022/06/29 07:46:02;;;;;;;6.60;1.70;;;25.50;96.70;;;;;;4870614;29;20044;-80
2022/06/29 07:48:31;;;;;;;9.50;2.05;;;25.60;96.70;;;;;;4871069;29;20049;-80
2022/06/29 07:50:59;;;;;;;8.00;2.45;;;25.60;96.70;;;;;;4854798;29;20148;-78
2022/06/29 07:53:31;;;;;;;6.97;1.67;;;25.70;96.70;;;;;;4873012;29;20068;-81
2022/06/29 07:56:01;;;;;;;4.60;1.63;;;25.80;96.70;;;;;;4870386;29;20053;-80
2022/06/29 07:58:29;;;;;;;8.82;1.85;;;25.90;96.70;;;;;;4871347;29;20056;-81
2022/06/29 08:00:58;;;;;;;6.72;2.70;;;26.10;96.70;;;;;;4871659;29;20085;-81
2022/06/29 08:03:26;;;;;;;6.97;1.92;;;26.10;96.70;;;;;;4870901;29;20049;-81
2022/06/29 08:05:55;;;;;;;5.72;1.73;;;26.20;96.70;;;;;;4870606;29;20056;-81
2022/06/29 08:08:23;;;;;;;6.40;2.08;;;26.40;96.70;;;;;;4871571;29;20045;-82
2022/06/29 08:10:53;;;;;;;7.60;2.08;;;26.40;96.70;;;;;;4863974;29;20069;-82
2022/06/29 08:13:24;;;;;;;8.07;2.42;;;26.40;96.70;;;;;;4871920;29;20415;-80
2022/06/29 08:15:52;;;;;;;9.43;2.47;;;26.30;96.70;;;;;;4873349;29;20068;-79
2022/06/29 08:18:21;;;;;;;6.95;2.20;;;26.20;96.70;;;;;;4870671;29;20080;-79
2022/06/29 08:20:49;;;;;;;7.32;2.03;;;26.10;96.70;;;;;;4870763;29;20538;-79
2022/06/29 08:23:17;;;;;;;8.45;2.55;;;26.10;96.70;;;;;;4870391;29;20069;-78
2022/06/29 08:25:46;;;;;;;8.90;2.83;;;26.10;96.70;;;;;;4854986;29;20044;-79
2022/06/29 08:28:36;;;;;;;10.30;2.53;;;26.20;96.70;;;;;;4867971;29;20049;-78
2022/06/29 08:31:04;;;;;;;6.30;2.20;;;26.30;96.70;;;;;;4869519;29;20140;-80
2022/06/29 08:33:33;;;;;;;8.50;2.10;;;26.50;96.70;;;;;;4870290;29;20642;-80
2022/06/29 08:36:01;;;;;;;8.80;2.03;;;26.50;96.70;;;;;;4871003;29;20049;-80
2022/06/29 08:38:30;;;;;;;7.53;2.05;;;26.50;96.70;;;;;;4870551;29;20563;-81
2022/06/29 08:40:59;;;;;;;8.77;2.28;;;26.50;96.70;;;;;;4871976;29;20044;-79
2022/06/29 08:43:27;;;;;;;6.45;1.95;;;26.50;96.70;;;;;;4870928;29;20072;-81
2022/06/29 08:45:58;;;;;;;9.15;2.38;;;26.70;96.70;;;;;;4869423;29;20104;-81
2022/06/29 08:48:27;;;;;;;9.98;2.28;;;26.90;96.70;;;;;;4867412;29;20056;-79
2022/06/29 08:50:55;;;;;;;8.75;2.35;;;27.00;96.70;;;;;;4869552;29;20076;-79
2022/06/29 08:53:24;;;;;;;12.27;2.45;;;27.10;96.70;;;;;;4869683;29;20055;-80
2022/06/29 08:55:56;;;;;;;7.13;2.00;;;27.10;96.70;;;;;;4854242;29;20488;-80
2022/06/29 08:58:27;;;;;;;7.70;1.98;;;27.10;96.70;;;;;;4870432;29;20099;-79
2022/06/29 09:01:03;;;;;;;10.40;2.05;;;27.20;96.70;;;;;;4868839;29;20136;-79
2022/06/29 09:03:32;;;;;;;9.77;2.38;;;27.20;96.70;;;;;;4857313;29;20571;-81
2022/06/29 09:06:03;;;;;;;7.03;1.98;;;27.30;96.70;;;;;;4869611;29;20511;-80
2022/06/29 09:08:32;;;;;;;7.63;2.13;;;27.30;96.70;;;;;;4869156;29;20053;-79
2022/06/29 09:11:22;;;;;;;7.93;2.13;;;27.20;96.70;;;;;;4869323;29;20053;-79
2022/06/29 09:14:10;;;;;;;6.32;2.60;;;27.10;96.70;;;;;;4883109;29;20060;-81
2022/06/29 09:16:55;;;;;;;8.32;2.00;;;27.20;96.70;;;;;;4869846;29;20048;-80
2022/06/29 09:19:28;;;;;;;9.02;2.13;;;27.20;96.70;;;;;;4868799;29;20048;-81
2022/06/29 09:21:58;;;;;;;9.88;2.38;;;26.90;96.70;;;;;;4869569;29;20049;-79
2022/06/29 09:24:28;;;;;;;6.85;1.90;;;26.90;96.70;;;;;;4868693;29;20076;-78
2022/06/29 09:27:02;;;;;;;7.50;2.40;;;27.00;96.70;;;;;;4870827;29;20518;-79
2022/06/29 09:29:33;;;;;;;6.10;1.75;;;27.10;96.70;;;;;;4869066;29;20049;-80
2022/06/29 09:32:14;;;;;;;7.28;2.30;;;27.30;96.70;;;;;;4870620;29;20053;-80
2022/06/29 09:34:46;;;;;;;8.38;2.00;;;27.50;96.70;;;;;;4873739;29;20052;-80
2022/06/29 09:37:16;;;;;;;7.25;2.00;;;27.50;96.70;;;;;;4887486;29;20049;-81
2022/06/29 09:39:50;;;;;;;9.80;3.22;;;27.50;96.70;;;;;;4876925;29;20049;-80
2022/06/29 09:42:24;;;;;;;7.53;2.33;;;27.50;96.70;;;;;;4864947;29;20056;-80
2022/06/29 09:44:54;;;;;;;7.18;2.15;;;27.70;96.70;;;;;;4880005;29;20068;-80
2022/06/29 09:47:25;;;;;;;12.25;2.50;;;27.60;96.70;;;;;;4873821;29;20061;-81
2022/06/29 09:49:59;;;;;;;11.48;2.17;;;27.50;96.70;;;;;;4877122;29;20045;-83
2022/06/29 09:52:28;;;;;;;6.25;2.00;;;27.50;96.70;;;;;;4889503;29;20097;-82
2022/06/29 09:54:58;;;;;;;6.65;2.30;;;27.60;96.70;;;;;;4866350;29;20105;-82
2022/06/29 09:57:29;;;;;;;7.55;2.47;;;27.60;96.70;;;;;;4873310;29;20053;-80
2022/06/29 10:02:55;;;;;;;6.35;2.00;;;27.60;96.70;;;;;;4888200;29;20049;-81
2022/06/29 10:05:28;;;;;;;6.80;2.13;;;27.70;96.70;;;;;;4874362;29;20077;-79
2022/06/29 10:07:56;;;;;;;7.38;1.75;;;27.80;96.70;;;;;;4871329;29;20053;-80
2022/06/29 10:10:26;;;;;;;6.55;1.95;;;27.90;96.70;;;;;;4854619;29;20050;-78
2022/06/29 10:16:14;;;;;;;7.75;2.30;;;28.10;96.70;;;;;;4871473;29;20041;-78
2022/06/29 10:19:05;;;;;;;7.57;2.42;;;28.00;96.70;;;;;;4870940;29;20151;-79
2022/06/29 10:21:34;;;;;;;8.23;1.58;;;28.20;96.70;;;;;;4868569;29;20071;-79
2022/06/29 10:24:04;;;;;;;7.38;1.70;;;28.10;96.70;;;;;;4862177;29;20121;-79
2022/06/29 10:26:45;;;;;;;7.45;2.30;;;28.20;96.70;;;;;;4854472;29;20057;-81
2022/06/29 10:29:29;;;;;;;7.32;1.55;;;28.30;96.70;;;;;;4854600;29;20076;-80
2022/06/29 10:32:15;;;;;;;8.88;1.83;;;28.30;96.70;;;;;;4851462;29;20140;-80
2022/06/29 10:37:46;;;;;;;8.63;2.13;;;28.40;96.70;;;;;;4868864;29;20269;-80
2022/06/29 10:40:23;;;;;;;7.72;2.38;;;28.40;96.70;;;;;;4836807;29;20072;-80
2022/06/29 10:43:20;;;;;;;10.45;2.28;;;28.50;96.70;;;;;;4857618;29;20462;-80
2022/06/29 10:45:57;;;;;;;6.63;1.70;;;28.60;96.70;;;;;;4850995;29;20056;-80
2022/06/29 10:48:30;;;;;;;4.25;2.10;;;28.50;96.70;;;;;;4852782;29;20061;-79
2022/06/29 10:51:01;;;;;;;16.70;3.05;;;28.50;96.70;;;;;;4848541;29;20060;-77
2022/06/29 10:53:30;;;;;;;9.00;2.00;;;28.70;96.70;;;;;;4845756;29;20117;-78
2022/06/29 10:55:59;;;;;;;10.00;2.00;;;28.80;96.70;;;;;;4866620;29;20456;-76
2022/06/29 10:58:29;;;;;;;8.13;2.30;;;28.80;96.70;;;;;;4869102;29;20121;-77
2022/06/29 11:00:58;;;;;;;7.72;1.73;;;28.60;96.70;;;;;;4883426;29;20049;-77
2022/06/29 11:03:27;;;;;;;7.53;2.40;;;28.70;96.70;;;;;;4872829;29;20045;-78
2022/06/29 11:17:47;;;;;;;5.18;1.98;;;28.90;96.70;;;;;;4884355;29;20414;-76
2022/06/29 11:20:19;;;;;;;8.85;2.38;;;28.90;96.70;;;;;;4871989;29;20571;-77
2022/06/29 11:22:51;;;;;;;4.45;1.75;;;29.20;96.70;;;;;;4857935;29;20105;-78
2022/06/29 11:25:21;;;;;;;7.60;2.22;;;29.40;96.70;;;;;;4870643;29;20123;-77
2022/06/29 11:27:50;;;;;;;6.22;1.80;;;29.40;96.70;;;;;;4871164;29;20067;-78
2022/06/29 11:30:24;;;;;;;6.88;1.88;;;29.50;96.70;;;;;;4861751;29;20049;-78
2022/06/29 11:32:52;;;;;;;6.03;1.95;;;29.60;96.70;;;;;;4872325;29;20041;-77
2022/06/29 11:35:22;;;;;;;6.00;1.77;;;29.60;96.70;;;;;;4857448;29;20456;-78
2022/06/29 11:37:52;;;;;;;6.53;1.63;;;29.40;96.70;;;;;;4869812;29;20132;-78
2022/06/29 11:40:34;;;;;;;7.15;2.08;;;29.20;96.70;;;;;;4879640;29;20076;-79
2022/06/29 11:43:05;;;;;;;8.98;1.65;;;29.30;96.70;;;;;;4864477;29;20052;-78
2022/06/29 11:45:43;;;;;;;12.02;2.13;;;29.30;96.70;;;;;;4844969;29;20065;-78
2022/06/29 11:48:17;;;;;;;7.65;1.70;;;29.40;96.70;;;;;;4865874;29;20164;-77
2022/06/29 11:50:51;;;;;;;5.57;1.80;;;29.50;96.70;;;;;;4867890;29;20049;-79
2022/06/29 11:53:38;;;;;;;8.90;1.88;;;29.40;96.70;;;;;;4854851;29;20064;-79
2022/06/29 11:56:13;;;;;;;4.90;1.80;;;29.50;96.70;;;;;;4859455;29;20057;-79
2022/06/29 11:58:43;;;;;;;27.20;3.15;;;29.50;96.70;;;;;;4856034;29;20152;-82
2022/06/29 12:01:12;;;;;;;10.23;2.15;;;29.70;96.70;;;;;;4838349;29;20113;-82
2022/06/29 12:03:48;;;;;;;6.20;2.17;;;29.70;96.70;;;;;;4855681;29;20138;-83
2022/06/29 12:06:18;;;;;;;;;;;29.50;96.70;;;;;;4854796;29;20072;-80
2022/06/29 12:08:46;;;;;;;6.80;1.83;;;29.60;96.70;;;;;;4865746;29;19932;-81
2022/06/29 12:11:16;;;;;;;5.85;1.90;;;29.70;96.70;;;;;;4868624;29;20048;-78
2022/06/29 12:13:46;;;;;;;6.38;1.60;;;29.80;96.70;;;;;;4853375;29;20053;-82
2022/06/29 12:16:14;;;;;;;6.47;2.00;;;29.80;96.70;;;;;;4870628;29;20036;-85
2022/06/29 12:18:43;;;;;;;7.38;2.08;;;29.90;96.70;;;;;;4866883;29;20137;-83
2022/06/29 12:21:11;;;;;;;7.75;1.90;;;29.90;96.70;;;;;;4870544;29;20049;-81
2022/06/29 12:23:39;;;;;;;6.95;1.50;;;29.90;96.70;;;;;;4855359;29;20582;-78
2022/06/29 12:26:08;;;;;;;6.18;1.67;;;30.10;96.70;;;;;;4868452;29;20097;-81
2022/06/29 12:28:39;;;;;;;6.40;1.80;;;29.90;96.70;;;;;;4868793;29;20100;-79
2022/06/29 12:31:08;;;;;;;4.20;1.48;;;29.80;96.70;;;;;;4869719;29;20500;-79
2022/06/29 12:33:36;;;;;;;6.70;1.80;;;29.90;96.70;;;;;;4870077;29;20053;-78
2022/06/29 12:36:05;;;;;;;7.15;1.90;;;29.90;96.70;;;;;;4868605;29;20510;-78
2022/06/29 12:38:38;;;;;;;7.85;1.70;;;30.00;96.70;;;;;;4869577;29;20045;-78
2022/06/29 12:41:09;;;;;;;7.50;1.88;;;30.00;96.70;;;;;;4868332;29;20053;-78
2022/06/29 12:43:39;;;;;;;6.70;1.60;;;29.90;96.70;;;;;;4869293;29;20076;-77
2022/06/29 12:46:18;;;;;;;4.30;1.33;;;30.10;96.70;;;;;;4853335;29;20059;-78
2022/06/29 12:48:47;;;;;;;6.35;1.58;;;30.00;96.70;;;;;;4857815;29;20053;-78
2022/06/29 12:51:15;;;;;;;8.88;1.80;;;30.10;96.70;;;;;;4866972;29;20050;-79
2022/06/29 12:53:44;;;;;;;9.20;2.53;;;30.00;96.70;;;;;;4870113;29;20128;-79
2022/06/29 12:56:13;;;;;;;8.30;1.85;;;30.10;96.70;;;;;;4869938;29;20145;-79
2022/06/29 12:58:43;;;;;;;5.25;1.50;;;30.10;96.70;;;;;;4868794;29;20117;-80
2022/06/29 13:01:11;;;;;;;5.05;1.55;;;30.10;96.70;;;;;;4869037;29;20064;-78
2022/06/29 13:03:39;;;;;;;4.57;1.75;;;29.90;96.70;;;;;;4870794;29;20049;-76
2022/06/29 13:06:08;;;;;;;7.70;1.77;;;30.20;96.70;;;;;;4869863;29;20060;-79
2022/06/29 13:08:36;;;;;;;5.43;1.73;;;30.20;96.70;;;;;;4869892;29;20049;-81
2022/06/29 13:11:35;;;;;;;3.75;1.50;;;30.30;96.70;;;;;;4871261;29;20049;-79
2022/06/29 13:14:04;;;;;;;4.60;1.63;;;30.40;96.70;;;;;;4870520;29;20063;-81
2022/06/29 13:16:35;;;;;;;4.35;1.52;;;30.70;96.70;;;;;;4883750;29;20150;-80
2022/06/29 13:19:06;;;;;;;7.65;2.13;;;30.60;96.70;;;;;;4874026;29;20049;-80
2022/06/29 13:21:38;;;;;;;6.45;1.65;;;30.30;96.70;;;;;;4889031;29;20056;-79
2022/06/29 13:24:07;;;;;;;6.60;1.90;;;30.40;96.70;;;;;;4872972;29;20495;-80
2022/06/29 13:26:35;;;;;;;6.55;2.05;;;30.30;96.70;;;;;;4873786;29;20499;-81